createdAt,value
2023-08-15T00:01:01.250Z,89032.44
2023-08-15T00:03:46.516Z,89027.06
2023-08-15T00:06:31.506Z,89026.13
2023-08-15T00:09:16.612Z,89025.50
2023-08-15T00:12:01.761Z,89016.81
2023-08-15T00:14:47.073Z,89027.44
2023-08-15T00:17:32.140Z,89024.09
2023-08-15T00:20:17.300Z,89028.16
2023-08-15T00:23:02.344Z,89028.59
2023-08-15T00:25:47.213Z,89024.84
2023-08-15T00:28:32.344Z,89021.38
2023-08-15T00:31:17.344Z,89020.41
2023-08-15T00:34:02.532Z,89016.13
2023-08-15T00:36:47.418Z,89019.66
2023-08-15T00:39:32.556Z,89015.91
2023-08-15T00:42:17.524Z,89019.94
2023-08-15T00:45:02.715Z,89022.88
2023-08-15T00:47:47.985Z,89019.69
2023-08-15T00:50:33.011Z,89017.59
2023-08-15T00:53:18.183Z,89015.38
2023-08-15T00:56:03.314Z,89014.25
2023-08-15T00:58:48.393Z,89015.41
2023-08-15T01:01:33.472Z,89012.63
2023-08-15T01:04:18.631Z,89006.47
2023-08-15T01:07:03.733Z,89009.56
2023-08-15T01:09:48.886Z,89016.41
2023-08-15T01:12:34.177Z,89006.13
2023-08-15T01:15:19.242Z,89009.75
2023-08-15T01:18:04.572Z,89007.41
2023-08-15T01:20:49.523Z,88998.78
2023-08-15T01:23:34.630Z,89001.19
2023-08-15T01:26:19.732Z,88985.72
2023-08-15T01:29:04.735Z,88989.22
2023-08-15T01:31:49.990Z,88986.44
2023-08-15T01:34:35.024Z,88988.13
2023-08-15T01:37:20.470Z,88982.13
2023-08-15T01:40:05.336Z,88981.44
2023-08-15T01:42:50.512Z,88979.47
2023-08-15T01:45:35.666Z,88973.50
2023-08-15T01:48:20.786Z,88973.63
2023-08-15T01:51:06.011Z,88972.94
2023-08-15T01:53:51.071Z,88967.63
2023-08-15T01:56:36.075Z,88962.75
2023-08-15T01:59:21.168Z,88957.19
2023-08-15T02:02:06.280Z,88955.81
2023-08-15T02:04:51.371Z,88951.91
2023-08-15T02:07:36.514Z,88948.00
2023-08-15T02:10:21.615Z,88951.78
2023-08-15T02:13:06.768Z,88948.44
2023-08-15T02:15:51.958Z,88949.84
2023-08-15T02:18:37.963Z,88951.09
2023-08-15T02:21:24.136Z,88957.38
2023-08-15T02:24:09.263Z,88953.31
2023-08-15T02:26:54.273Z,88951.81
2023-08-15T02:29:39.641Z,88955.41
2023-08-15T02:32:24.486Z,88950.97
2023-08-15T02:35:09.696Z,88950.13
2023-08-15T02:37:54.620Z,88958.34
2023-08-15T02:40:39.841Z,88948.88
2023-08-15T02:43:24.955Z,88949.97
2023-08-15T02:46:09.984Z,88952.94
2023-08-15T02:48:55.136Z,88948.34
2023-08-15T02:51:40.179Z,88951.13
2023-08-15T02:54:25.264Z,88939.81
2023-08-15T02:57:10.358Z,88937.31
2023-08-15T02:59:55.807Z,88940.41
2023-08-15T03:02:41.039Z,88940.25
2023-08-15T03:05:26.001Z,88935.53
2023-08-15T03:08:11.252Z,88937.47
2023-08-15T03:10:56.321Z,88936.63
2023-08-15T03:13:41.476Z,88940.97
2023-08-15T03:16:26.662Z,88943.47
2023-08-15T03:19:11.895Z,88943.31
2023-08-15T03:21:57.014Z,88938.19
2023-08-15T03:24:42.123Z,88939.00
2023-08-15T03:27:27.257Z,88938.75
2023-08-15T03:30:12.204Z,88943.75
2023-08-15T03:32:57.441Z,88941.09
2023-08-15T03:35:42.493Z,88947.06
2023-08-15T03:38:27.536Z,88940.56
2023-08-15T03:41:12.483Z,88941.66
2023-08-15T03:43:57.560Z,88933.03
2023-08-15T03:46:42.776Z,88926.47
2023-08-15T03:49:27.762Z,88927.19
2023-08-15T03:52:13.014Z,88935.53
2023-08-15T03:54:58.014Z,88932.47
2023-08-15T03:57:43.171Z,88932.34
2023-08-15T04:00:28.174Z,88932.03
2023-08-15T04:03:13.379Z,88926.47
2023-08-15T04:05:58.508Z,88933.56
2023-08-15T04:08:43.492Z,88933.03
2023-08-15T04:11:28.639Z,88940.13
2023-08-15T04:14:13.727Z,88944.84
2023-08-15T04:16:58.732Z,88948.47
2023-08-15T04:19:43.896Z,88952.66
2023-08-15T04:22:29.075Z,88944.16
2023-08-15T04:25:14.116Z,88948.06
2023-08-15T04:27:59.189Z,88953.91
2023-08-15T04:30:44.424Z,88959.75
2023-08-15T04:33:29.435Z,88953.75
2023-08-15T04:36:14.619Z,88954.88
2023-08-15T04:38:59.627Z,88956.66
2023-08-15T04:41:44.897Z,88956.66
2023-08-15T04:44:29.941Z,88958.06
2023-08-15T04:47:15.058Z,88967.41
2023-08-15T04:50:00.211Z,88968.78
2023-08-15T04:52:45.279Z,88973.53
2023-08-15T04:55:30.502Z,88973.66
2023-08-15T04:58:15.575Z,88983.97
2023-08-15T05:01:00.983Z,88977.84
2023-08-15T05:03:45.992Z,88983.97
2023-08-15T05:06:31.044Z,88983.13
2023-08-15T05:09:16.339Z,88986.47
2023-08-15T05:12:01.402Z,88980.50
2023-08-15T05:14:46.733Z,88982.84
2023-08-15T05:17:32.385Z,88979.75
2023-08-15T05:20:17.255Z,88981.44
2023-08-15T05:23:02.296Z,88992.47
2023-08-15T05:25:47.484Z,88990.22
2023-08-15T05:28:32.729Z,88994.38
2023-08-15T05:31:17.859Z,89000.50
2023-08-15T05:34:03.250Z,89006.47
2023-08-15T05:36:48.193Z,89005.91
2023-08-15T05:39:33.320Z,89002.84
2023-08-15T05:42:18.298Z,88999.72
2023-08-15T05:45:03.359Z,89005.72
2023-08-15T05:47:48.538Z,89001.06
2023-08-15T05:50:33.764Z,89005.75
2023-08-15T05:53:19.009Z,89011.03
2023-08-15T05:56:04.080Z,89010.88
2023-08-15T05:58:49.371Z,89007.03
2023-08-15T06:01:34.386Z,89004.59
2023-08-15T06:04:19.471Z,89004.63
2023-08-15T06:07:04.629Z,89006.47
2023-08-15T06:09:49.571Z,88999.16
2023-08-15T06:12:34.693Z,89001.00
2023-08-15T06:15:19.664Z,88994.28
2023-08-15T06:18:04.652Z,88994.56
2023-08-15T06:20:49.553Z,88990.28
2023-08-15T06:23:34.616Z,88988.03
2023-08-15T06:26:19.473Z,88990.84
2023-08-15T06:29:04.445Z,88998.88
2023-08-15T06:31:49.620Z,88996.97
2023-08-15T06:34:34.564Z,88998.41
2023-08-15T06:37:19.943Z,88997.16
2023-08-15T06:40:05.134Z,89000.03
2023-08-15T06:42:50.311Z,88991.28
2023-08-15T06:45:35.136Z,88993.31
2023-08-15T06:48:20.248Z,88991.91
2023-08-15T06:51:05.338Z,88993.31
2023-08-15T06:53:50.947Z,88993.97
2023-08-15T06:56:36.081Z,88996.03
2023-08-15T06:59:21.164Z,88996.00
2023-08-15T07:02:06.099Z,88998.69
2023-08-15T07:04:51.010Z,89002.06
2023-08-15T07:07:36.067Z,88996.47
2023-08-15T07:10:20.937Z,88998.16
2023-08-15T07:13:05.874Z,89001.25
2023-08-15T07:15:51.025Z,88997.47
2023-08-15T07:18:36.016Z,88999.34
2023-08-15T07:21:21.023Z,89003.31
2023-08-15T07:24:06.005Z,88999.13
2023-08-15T07:26:51.118Z,88994.25
2023-08-15T07:29:36.122Z,88992.53
2023-08-15T07:32:21.655Z,88992.72
2023-08-15T07:35:06.765Z,88993.06
2023-08-15T07:37:51.725Z,88987.78
2023-08-15T07:40:36.676Z,88982.13
2023-08-15T07:43:21.737Z,88986.94
2023-08-15T07:46:06.901Z,88987.16
2023-08-15T07:48:51.882Z,88983.16
2023-08-15T07:51:36.942Z,88986.19
2023-08-15T07:54:22.240Z,88997.06
2023-08-15T07:57:07.281Z,89001.44
2023-08-15T07:59:52.459Z,89000.47
2023-08-15T08:02:37.551Z,89002.75
2023-08-15T08:05:23.758Z,89009.09
2023-08-15T08:08:08.658Z,89006.22
2023-08-15T08:10:53.654Z,89014.59
2023-08-15T08:13:38.684Z,89014.75
2023-08-15T08:16:23.665Z,89012.06
2023-08-15T08:19:08.704Z,89001.53
2023-08-15T08:21:53.717Z,88997.81
2023-08-15T08:24:38.898Z,88994.22
2023-08-15T08:27:23.988Z,88991.47
2023-08-15T08:30:09.109Z,88993.88
2023-08-15T08:32:54.115Z,88997.66
2023-08-15T08:35:39.152Z,88989.91
2023-08-15T08:38:27.961Z,88988.19
2023-08-15T08:41:13.523Z,88986.28
2023-08-15T08:43:58.589Z,88985.22
2023-08-15T08:46:43.733Z,88984.44
2023-08-15T08:49:28.812Z,88980.56
2023-08-15T08:52:13.878Z,88972.13
2023-08-15T08:54:58.824Z,88972.31
2023-08-15T08:57:43.974Z,88968.03
2023-08-15T09:00:29.007Z,88955.34
2023-08-15T09:03:14.078Z,88959.44
2023-08-15T09:05:59.218Z,88955.00
2023-08-15T09:08:44.278Z,88951.25
2023-08-15T09:11:29.299Z,88957.44
2023-08-15T09:14:14.259Z,88954.59
2023-08-15T09:16:59.564Z,88958.75
2023-08-15T09:19:44.585Z,88958.75
2023-08-15T09:22:29.750Z,88956.47
2023-08-15T09:25:14.698Z,88947.97
2023-08-15T09:27:59.757Z,88955.16
2023-08-15T09:30:44.807Z,88938.19
2023-08-15T09:33:29.876Z,88936.78
2023-08-15T09:36:15.096Z,88931.09
2023-08-15T09:39:00.088Z,88937.19
2023-08-15T09:41:45.287Z,88931.72
2023-08-15T09:44:30.498Z,88930.69
2023-08-15T09:47:15.558Z,88924.75
2023-08-15T09:50:00.859Z,88918.31
2023-08-15T09:52:46.572Z,88918.88
2023-08-15T09:55:34.045Z,88922.94
2023-08-15T09:58:19.124Z,88916.50
2023-08-15T10:01:04.064Z,88917.56
2023-08-15T10:03:49.311Z,88923.00
2023-08-15T10:06:34.231Z,88908.31
2023-08-15T10:09:19.369Z,88911.41
2023-08-15T10:12:04.406Z,88904.69
2023-08-15T10:14:49.545Z,88901.78
2023-08-15T10:17:34.664Z,88903.41
2023-08-15T10:20:19.709Z,88903.09
2023-08-15T10:23:04.797Z,88904.00
2023-08-15T10:25:50.329Z,88901.72
2023-08-15T10:28:35.538Z,88902.00
2023-08-15T10:31:20.592Z,88899.50
2023-08-15T10:34:05.651Z,88901.72
2023-08-15T10:36:50.777Z,88906.41
2023-08-15T10:39:35.851Z,88900.28
2023-08-15T10:42:21.066Z,88897.19
2023-08-15T10:45:06.048Z,88897.53
2023-08-15T10:47:51.214Z,88891.63
2023-08-15T10:50:36.285Z,88888.56
2023-08-15T10:53:21.469Z,88888.91
2023-08-15T10:56:06.539Z,88886.91
2023-08-15T10:58:51.622Z,88884.50
2023-08-15T11:01:36.782Z,88884.84
2023-08-15T11:04:21.784Z,88876.94
2023-08-15T11:07:07.045Z,88871.38
2023-08-15T11:09:51.936Z,88872.19
2023-08-15T11:12:37.202Z,88863.03
2023-08-15T11:15:22.280Z,88872.03
2023-08-15T11:18:07.564Z,88862.94
2023-08-15T11:20:52.691Z,88871.72
2023-08-15T11:23:37.690Z,88868.91
2023-08-15T11:26:23.014Z,88862.69
2023-08-15T11:29:08.016Z,88865.56
2023-08-15T11:31:53.295Z,88874.41
2023-08-15T11:34:38.300Z,88868.56
2023-08-15T11:37:23.844Z,88867.25
2023-08-15T11:40:09.149Z,88868.66
2023-08-15T11:42:54.230Z,88865.94
2023-08-15T11:45:39.262Z,88863.06
2023-08-15T11:48:24.316Z,88864.66
2023-08-15T11:51:09.342Z,88864.44
2023-08-15T11:53:54.248Z,88866.06
2023-08-15T11:56:39.368Z,88866.56
2023-08-15T11:59:24.414Z,88864.53
2023-08-15T12:02:09.455Z,88861.44
2023-08-15T12:04:54.698Z,88863.38
2023-08-15T12:07:39.701Z,88860.09
2023-08-15T12:10:24.865Z,88859.84
2023-08-15T12:13:09.830Z,88856.94
2023-08-15T12:15:54.971Z,88860.13
2023-08-15T12:18:39.949Z,88858.72
2023-08-15T12:21:25.031Z,88860.81
2023-08-15T12:24:10.227Z,88859.59
2023-08-15T12:26:55.222Z,88856.72
2023-08-15T12:30:10.694Z,88850.59
2023-08-15T12:32:45.072Z,88848.22
2023-08-15T12:35:29.986Z,88848.16
2023-08-15T12:38:15.075Z,88845.59
2023-08-15T12:41:00.180Z,88844.41
2023-08-15T12:43:45.470Z,88847.28
2023-08-15T12:46:30.333Z,88849.38
2023-08-15T12:49:15.320Z,88842.84
2023-08-15T12:52:00.360Z,88843.47
2023-08-15T12:54:45.331Z,88838.09
2023-08-15T12:57:30.527Z,88824.00
2023-08-15T13:00:15.594Z,88827.50
2023-08-15T13:03:00.677Z,88834.28
2023-08-15T13:05:45.758Z,88827.59
2023-08-15T13:08:31.034Z,88823.69
2023-08-15T13:11:16.024Z,88824.94
2023-08-15T13:14:01.175Z,88810.00
2023-08-15T13:16:46.294Z,88809.50
2023-08-15T13:19:31.439Z,88807.81
2023-08-15T13:22:16.659Z,88804.44
2023-08-15T13:25:01.728Z,88802.03
2023-08-15T13:27:46.898Z,88800.03
2023-08-15T13:30:31.874Z,88795.03
2023-08-15T13:33:17.566Z,88780.56
2023-08-15T13:36:03.017Z,88786.13
2023-08-15T13:38:48.061Z,88785.06
2023-08-15T13:41:33.195Z,88779.88
2023-08-15T13:44:19.171Z,88771.84
2023-08-15T13:47:04.353Z,88785.88
2023-08-15T13:49:51.429Z,88781.19
2023-08-15T13:52:36.476Z,88780.94
2023-08-15T13:55:21.515Z,88766.00
2023-08-15T13:58:06.546Z,88764.94
2023-08-15T14:00:51.670Z,88765.75
2023-08-15T14:03:36.803Z,88771.22
2023-08-15T14:06:21.859Z,88771.59
2023-08-15T14:09:07.007Z,88761.94
2023-08-15T14:11:52.034Z,88762.88
2023-08-15T14:14:37.403Z,88756.38
2023-08-15T14:17:22.420Z,88749.00
2023-08-15T14:20:07.683Z,88759.66
2023-08-15T14:22:52.773Z,88749.34
2023-08-15T14:25:37.791Z,88760.25
2023-08-15T14:28:22.981Z,88752.19
2023-08-15T14:31:07.901Z,88751.00
2023-08-15T14:33:53.078Z,88737.47
2023-08-15T14:36:38.124Z,88739.88
2023-08-15T14:39:23.315Z,88742.97
2023-08-15T14:42:08.372Z,88735.56
2023-08-15T14:44:54.754Z,88733.69
2023-08-15T14:47:40.071Z,88725.44
2023-08-15T14:50:25.072Z,88734.13
2023-08-15T14:53:10.332Z,88723.16
2023-08-15T14:55:55.401Z,88718.38
2023-08-15T14:58:40.579Z,88722.47
2023-08-15T15:01:25.700Z,88719.13
2023-08-15T15:04:10.943Z,88720.00
2023-08-15T15:06:55.948Z,88715.63
2023-08-15T15:09:41.037Z,88708.25
2023-08-15T15:12:26.234Z,88706.13
2023-08-15T15:15:11.201Z,88703.44
2023-08-15T15:17:56.471Z,88711.41
2023-08-15T15:20:41.656Z,88709.16
2023-08-15T15:23:26.746Z,88709.53
2023-08-15T15:26:11.751Z,88709.88
2023-08-15T15:28:56.763Z,88716.84
2023-08-15T15:31:41.986Z,88717.38
2023-08-15T15:34:27.019Z,88719.13
2023-08-15T15:37:12.109Z,88717.34
2023-08-15T15:39:57.500Z,88722.81
2023-08-15T15:42:42.258Z,88726.91
2023-08-15T15:45:27.356Z,88726.47
2023-08-15T15:48:12.555Z,88730.66
2023-08-15T15:50:57.705Z,88728.63
2023-08-15T15:53:42.675Z,88725.84
2023-08-15T15:56:27.811Z,88718.53
2023-08-15T15:59:12.867Z,88730.34
2023-08-15T16:01:58.024Z,88723.22
2023-08-15T16:04:43.043Z,88726.25
2023-08-15T16:07:28.148Z,88730.19
2023-08-15T16:10:13.357Z,88725.97
2023-08-15T16:12:58.373Z,88729.22
2023-08-15T16:15:43.733Z,88732.53
2023-08-15T16:18:28.789Z,88730.72
2023-08-15T16:21:13.788Z,88728.78
2023-08-15T16:23:58.911Z,88736.72
2023-08-15T16:26:43.941Z,88721.91
2023-08-15T16:29:29.196Z,88729.72
2023-08-15T16:32:16.887Z,88727.31
2023-08-15T16:35:02.236Z,88724.63
2023-08-15T16:37:47.226Z,88718.91
2023-08-15T16:40:32.299Z,88724.00
2023-08-15T16:43:17.584Z,88728.50
2023-08-15T16:46:02.591Z,88724.81
2023-08-15T16:48:47.890Z,88725.91
2023-08-15T16:51:33.004Z,88728.41
2023-08-15T16:54:18.120Z,88735.84
2023-08-15T16:57:03.124Z,88732.81
2023-08-15T16:59:48.294Z,88739.78
2023-08-15T17:02:33.664Z,88738.44
2023-08-15T17:05:18.593Z,88743.31
2023-08-15T17:08:03.638Z,88744.13
2023-08-15T17:10:48.733Z,88744.44
2023-08-15T17:13:33.903Z,88747.53
2023-08-15T17:16:18.915Z,88752.75
2023-08-15T17:19:04.004Z,88754.34
2023-08-15T17:21:49.074Z,88764.13
2023-08-15T17:24:34.131Z,88771.53
2023-08-15T17:27:19.153Z,88764.84
2023-08-15T17:30:04.090Z,88779.59
2023-08-15T17:32:49.436Z,88767.53
2023-08-15T17:35:34.320Z,88776.97
2023-08-15T17:38:19.615Z,88776.34
2023-08-15T17:41:04.692Z,88787.03
2023-08-15T17:43:49.593Z,88792.88
2023-08-15T17:46:34.907Z,88783.44
2023-08-15T17:49:20.003Z,88786.69
2023-08-15T17:52:05.189Z,88789.28
2023-08-15T17:54:50.156Z,88789.16
2023-08-15T17:57:35.390Z,88791.22
2023-08-15T18:00:20.288Z,88781.38
2023-08-15T18:03:05.485Z,88798.19
2023-08-15T18:05:50.745Z,88792.09
2023-08-15T18:08:35.853Z,88800.31
2023-08-15T18:11:21.115Z,88792.22
2023-08-15T18:14:06.234Z,88796.38
2023-08-15T18:16:51.296Z,88807.78
2023-08-15T18:19:36.340Z,88801.69
2023-08-15T18:22:21.671Z,88804.50
2023-08-15T18:25:06.553Z,88815.44
2023-08-15T18:27:51.666Z,88821.06
2023-08-15T18:30:36.837Z,88826.03
2023-08-15T18:33:21.928Z,88822.59
2023-08-15T18:36:07.129Z,88821.63
2023-08-15T18:38:52.121Z,88821.09
2023-08-15T18:41:37.409Z,88830.69
2023-08-15T18:44:22.602Z,88840.59
2023-08-15T18:47:07.742Z,88832.22
2023-08-15T18:49:52.810Z,88840.38
2023-08-15T18:52:37.851Z,88843.22
2023-08-15T18:55:22.944Z,88848.47
2023-08-15T18:58:07.987Z,88856.22
2023-08-15T19:00:53.105Z,88866.44
2023-08-15T19:03:38.367Z,88872.97
2023-08-15T19:06:23.297Z,88874.09
2023-08-15T19:09:08.402Z,88874.31
2023-08-15T19:11:53.470Z,88881.38
2023-08-15T19:14:38.694Z,88883.44
2023-08-15T19:17:23.764Z,88887.78
2023-08-15T19:20:08.970Z,88888.59
2023-08-15T19:22:53.995Z,88894.94
2023-08-15T19:25:39.085Z,88889.50
2023-08-15T19:28:24.198Z,88889.50
2023-08-15T19:31:09.273Z,88893.28
2023-08-15T19:33:54.495Z,88896.53
2023-08-15T19:36:39.641Z,88904.94
2023-08-15T19:39:24.946Z,88895.47
2023-08-15T19:42:10.001Z,88904.72
2023-08-15T19:44:55.040Z,88901.69
2023-08-15T19:47:40.189Z,88900.91
2023-08-15T19:50:26.397Z,88905.84
2023-08-15T19:53:12.272Z,88902.78
2023-08-15T19:55:57.187Z,88897.06
2023-08-15T19:58:42.439Z,88899.81
2023-08-15T20:01:27.667Z,88896.47
2023-08-15T20:04:12.607Z,88901.88
2023-08-15T20:06:57.773Z,88895.38
2023-08-15T20:09:48.828Z,88893.47
2023-08-15T20:12:40.668Z,88893.47
2023-08-15T20:15:25.743Z,88889.09
2023-08-15T20:18:11.031Z,88885.56
2023-08-15T20:20:56.156Z,88897.88
2023-08-15T20:23:41.280Z,88898.69
2023-08-15T20:26:26.357Z,88900.34
2023-08-15T20:29:11.419Z,88897.69
2023-08-15T20:31:56.557Z,88903.31
2023-08-15T20:34:41.558Z,88911.22
2023-08-15T20:37:26.679Z,88911.41
2023-08-15T20:40:11.659Z,88913.38
2023-08-15T20:42:56.782Z,88918.44
2023-08-15T20:45:41.852Z,88920.09
2023-08-15T20:48:27.031Z,88922.69
2023-08-15T20:51:12.167Z,88934.47
2023-08-15T20:53:57.148Z,88939.09
2023-08-15T20:56:42.439Z,88942.53
2023-08-15T20:59:27.457Z,88946.28
2023-08-15T21:02:12.804Z,88949.75
2023-08-15T21:04:57.838Z,88959.66
2023-08-15T21:07:42.994Z,88957.56
2023-08-15T21:10:30.031Z,88958.97
2023-08-15T21:13:15.117Z,88958.84
2023-08-15T21:16:00.182Z,88965.31
2023-08-15T21:18:45.181Z,88959.72
2023-08-15T21:21:30.188Z,88966.31
2023-08-15T21:24:15.233Z,88961.66
2023-08-15T21:27:00.497Z,88971.13
2023-08-15T21:29:45.462Z,88961.56
2023-08-15T21:32:30.562Z,88963.22
2023-08-15T21:35:15.682Z,88966.16
2023-08-15T21:38:00.651Z,88968.84
2023-08-15T21:40:45.665Z,88972.22
2023-08-15T21:43:30.758Z,88972.22
2023-08-15T21:46:16.048Z,88975.63
2023-08-15T21:49:01.201Z,88977.13
2023-08-15T21:51:46.380Z,88975.03
2023-08-15T21:54:31.594Z,88986.81
2023-08-15T21:57:16.791Z,88982.13
2023-08-15T22:00:01.758Z,88987.84
2023-08-15T22:02:46.881Z,88987.72
2023-08-15T22:05:31.890Z,88992.69
2023-08-15T22:08:16.876Z,88987.63
2023-08-15T22:11:01.940Z,88990.59
2023-08-15T22:13:47.088Z,88987.41
2023-08-15T22:16:32.152Z,88992.41
2023-08-15T22:19:17.256Z,88987.72
2023-08-15T22:22:02.293Z,88997.41
2023-08-15T22:24:53.899Z,88994.66
2023-08-15T22:27:42.636Z,88992.44
2023-08-15T22:30:28.089Z,89002.91
2023-08-15T22:33:13.184Z,88999.22
2023-08-15T22:35:58.301Z,88986.00
2023-08-15T22:38:43.352Z,88993.72
2023-08-15T22:41:28.573Z,88978.19
2023-08-15T22:44:13.767Z,88979.22
2023-08-15T22:46:58.785Z,88979.59
2023-08-15T22:49:44.103Z,88978.13
2023-08-15T22:52:29.112Z,88976.38
2023-08-15T22:55:14.412Z,88982.88
2023-08-15T22:57:59.457Z,88982.34
2023-08-15T23:00:44.605Z,88981.03
2023-08-15T23:03:29.608Z,88980.03
2023-08-15T23:06:14.623Z,88974.72
2023-08-15T23:08:59.760Z,88972.88
2023-08-15T23:11:44.817Z,88973.81
2023-08-15T23:14:30.073Z,88976.81
2023-08-15T23:17:15.139Z,88975.19
2023-08-15T23:20:00.278Z,88976.38
2023-08-15T23:22:45.404Z,88980.41
2023-08-15T23:25:30.411Z,88968.69
2023-08-15T23:28:15.661Z,88971.03
2023-08-15T23:31:00.623Z,88970.53
2023-08-15T23:33:45.802Z,88973.22
2023-08-15T23:36:30.796Z,88972.53
2023-08-15T23:39:16.055Z,88971.84
2023-08-15T23:42:01.100Z,88973.13
2023-08-15T23:44:46.177Z,88959.97
2023-08-15T23:47:31.354Z,88968.03
2023-08-15T23:50:16.552Z,88962.97
2023-08-15T23:53:01.615Z,88965.94
2023-08-15T23:55:46.790Z,88970.00
2023-08-15T23:58:31.912Z,88969.53
